sensor_id;sensor_type;location;lat;lon;timestamp;P1;durP1;ratioP1;P2;durP2;ratioP2
25780;SDS011;13626;48.128;11.628;2022-10-16T00:01:13;3.08;;;1.65;;
25780;SDS011;13626;48.128;11.628;2022-10-16T00:03:41;3.50;;;1.83;;
25780;SDS011;13626;48.128;11.628;2022-10-16T00:06:09;3.40;;;1.60;;
25780;SDS011;13626;48.128;11.628;2022-10-16T00:08:37;2.28;;;1.50;;
25780;SDS011;13626;48.128;11.628;2022-10-16T00:11:08;2.10;;;1.45;;
25780;SDS011;13626;48.128;11.628;2022-10-16T00:13:36;1.70;;;1.60;;
25780;SDS011;13626;48.128;11.628;2022-10-16T00:16:03;2.40;;;1.52;;
25780;SDS011;13626;48.128;11.628;2022-10-16T00:18:31;2.10;;;1.50;;
25780;SDS011;13626;48.128;11.628;2022-10-16T00:21:05;2.30;;;1.50;;
25780;SDS011;13626;48.128;11.628;2022-10-16T00:23:32;1.45;;;1.35;;
25780;SDS011;13626;48.128;11.628;2022-10-16T00:26:01;4.10;;;1.88;;
25780;SDS011;13626;48.128;11.628;2022-10-16T00:28:29;1.95;;;1.67;;
25780;SDS011;13626;48.128;11.628;2022-10-16T00:30:56;1.50;;;1.40;;
25780;SDS011;13626;48.128;11.628;2022-10-16T00:33:23;5.10;;;2.08;;
25780;SDS011;13626;48.128;11.628;2022-10-16T00:35:50;1.48;;;1.38;;
25780;SDS011;13626;48.128;11.628;2022-10-16T00:38:18;2.47;;;1.40;;
25780;SDS011;13626;48.128;11.628;2022-10-16T00:40:45;5.20;;;1.67;;
25780;SDS011;13626;48.128;11.628;2022-10-16T00:43:13;2.60;;;1.80;;
25780;SDS011;13626;48.128;11.628;2022-10-16T00:45:41;1.92;;;1.50;;
25780;SDS011;13626;48.128;11.628;2022-10-16T00:48:11;2.42;;;1.92;;
25780;SDS011;13626;48.128;11.628;2022-10-16T00:50:40;3.15;;;1.70;;
25780;SDS011;13626;48.128;11.628;2022-10-16T00:53:10;3.15;;;1.60;;
25780;SDS011;13626;48.128;11.628;2022-10-16T00:55:37;2.08;;;1.60;;
25780;SDS011;13626;48.128;11.628;2022-10-16T00:58:07;1.63;;;1.50;;
25780;SDS011;13626;48.128;11.628;2022-10-16T01:00:35;2.00;;;1.48;;
25780;SDS011;13626;48.128;11.628;2022-10-16T01:03:02;2.28;;;1.63;;
25780;SDS011;13626;48.128;11.628;2022-10-16T01:05:33;1.30;;;1.20;;
25780;SDS011;13626;48.128;11.628;2022-10-16T01:08:07;4.55;;;1.50;;
25780;SDS011;13626;48.128;11.628;2022-10-16T01:10:40;3.40;;;1.50;;
25780;SDS011;13626;48.128;11.628;2022-10-16T01:13:18;5.20;;;1.40;;
25780;SDS011;13626;48.128;11.628;2022-10-16T01:15:52;1.50;;;1.40;;
25780;SDS011;13626;48.128;11.628;2022-10-16T01:20:53;3.20;;;1.73;;
25780;SDS011;13626;48.128;11.628;2022-10-16T01:23:27;3.97;;;1.30;;
25780;SDS011;13626;48.128;11.628;2022-10-16T01:28:23;1.15;;;1.05;;
25780;SDS011;13626;48.128;11.628;2022-10-16T01:30:52;1.98;;;1.35;;
25780;SDS011;13626;48.128;11.628;2022-10-16T01:33:28;1.75;;;1.05;;
25780;SDS011;13626;48.128;11.628;2022-10-16T01:35:58;1.10;;;1.00;;
25780;SDS011;13626;48.128;11.628;2022-10-16T01:38:30;1.17;;;1.08;;
25780;SDS011;13626;48.128;11.628;2022-10-16T01:40:59;1.92;;;1.05;;
25780;SDS011;13626;48.128;11.628;2022-10-16T01:43:28;2.30;;;1.00;;
25780;SDS011;13626;48.128;11.628;2022-10-16T01:46:00;1.52;;;1.30;;
25780;SDS011;13626;48.128;11.628;2022-10-16T01:48:27;1.30;;;1.10;;
25780;SDS011;13626;48.128;11.628;2022-10-16T01:51:03;3.38;;;1.25;;
25780;SDS011;13626;48.128;11.628;2022-10-16T01:53:31;2.60;;;1.20;;
25780;SDS011;13626;48.128;11.628;2022-10-16T01:55:59;2.35;;;1.20;;
25780;SDS011;13626;48.128;11.628;2022-10-16T01:58:27;6.28;;;1.20;;
25780;SDS011;13626;48.128;11.628;2022-10-16T02:00:56;2.70;;;1.25;;
25780;SDS011;13626;48.128;11.628;2022-10-16T02:03:24;2.60;;;1.13;;
25780;SDS011;13626;48.128;11.628;2022-10-16T02:05:53;1.83;;;1.30;;
25780;SDS011;13626;48.128;11.628;2022-10-16T02:08:21;1.58;;;1.20;;
25780;SDS011;13626;48.128;11.628;2022-10-16T02:10:49;2.58;;;1.50;;
25780;SDS011;13626;48.128;11.628;2022-10-16T02:13:23;2.67;;;1.50;;
25780;SDS011;13626;48.128;11.628;2022-10-16T02:15:52;1.88;;;1.60;;
25780;SDS011;13626;48.128;11.628;2022-10-16T02:18:20;1.58;;;1.27;;
25780;SDS011;13626;48.128;11.628;2022-10-16T02:21:00;1.73;;;1.20;;
25780;SDS011;13626;48.128;11.628;2022-10-16T02:23:37;1.52;;;1.20;;
25780;SDS011;13626;48.128;11.628;2022-10-16T02:26:10;2.70;;;1.30;;
25780;SDS011;13626;48.128;11.628;2022-10-16T02:28:44;1.20;;;1.10;;
25780;SDS011;13626;48.128;11.628;2022-10-16T02:31:12;1.58;;;1.20;;
25780;SDS011;13626;48.128;11.628;2022-10-16T02:33:41;3.55;;;1.55;;
25780;SDS011;13626;48.128;11.628;2022-10-16T02:36:09;2.38;;;1.30;;
25780;SDS011;13626;48.128;11.628;2022-10-16T02:38:37;1.48;;;1.30;;
25780;SDS011;13626;48.128;11.628;2022-10-16T02:41:05;2.53;;;1.40;;
25780;SDS011;13626;48.128;11.628;2022-10-16T02:43:32;4.10;;;1.30;;
25780;SDS011;13626;48.128;11.628;2022-10-16T02:46:00;3.80;;;1.42;;
25780;SDS011;13626;48.128;11.628;2022-10-16T02:48:28;2.13;;;1.20;;
25780;SDS011;13626;48.128;11.628;2022-10-16T02:50:55;2.67;;;1.38;;
25780;SDS011;13626;48.128;11.628;2022-10-16T02:53:23;2.03;;;1.27;;
25780;SDS011;13626;48.128;11.628;2022-10-16T02:55:50;1.75;;;1.23;;
25780;SDS011;13626;48.128;11.628;2022-10-16T02:58:17;1.88;;;1.33;;
25780;SDS011;13626;48.128;11.628;2022-10-16T03:00:44;2.17;;;1.20;;
25780;SDS011;13626;48.128;11.628;2022-10-16T03:03:12;3.15;;;1.20;;
25780;SDS011;13626;48.128;11.628;2022-10-16T03:05:39;1.45;;;1.20;;
25780;SDS011;13626;48.128;11.628;2022-10-16T03:08:06;1.20;;;1.10;;
25780;SDS011;13626;48.128;11.628;2022-10-16T03:10:33;1.95;;;1.30;;
25780;SDS011;13626;48.128;11.628;2022-10-16T03:13:00;3.42;;;1.20;;
25780;SDS011;13626;48.128;11.628;2022-10-16T03:15:27;1.27;;;1.02;;
25780;SDS011;13626;48.128;11.628;2022-10-16T03:17:56;2.28;;;1.42;;
25780;SDS011;13626;48.128;11.628;2022-10-16T03:20:24;2.22;;;1.38;;
25780;SDS011;13626;48.128;11.628;2022-10-16T03:22:52;1.98;;;1.23;;
25780;SDS011;13626;48.128;11.628;2022-10-16T03:25:19;1.20;;;1.00;;
25780;SDS011;13626;48.128;11.628;2022-10-16T03:27:46;1.67;;;1.00;;
25780;SDS011;13626;48.128;11.628;2022-10-16T03:30:13;1.73;;;1.13;;
25780;SDS011;13626;48.128;11.628;2022-10-16T03:32:40;1.73;;;0.93;;
25780;SDS011;13626;48.128;11.628;2022-10-16T03:35:07;1.30;;;1.20;;
25780;SDS011;13626;48.128;11.628;2022-10-16T03:37:34;2.30;;;1.10;;
25780;SDS011;13626;48.128;11.628;2022-10-16T03:40:02;1.63;;;1.30;;
25780;SDS011;13626;48.128;11.628;2022-10-16T03:42:30;1.48;;;1.20;;
25780;SDS011;13626;48.128;11.628;2022-10-16T03:44:57;2.65;;;1.30;;
25780;SDS011;13626;48.128;11.628;2022-10-16T03:47:24;4.05;;;1.30;;
25780;SDS011;13626;48.128;11.628;2022-10-16T03:49:52;3.85;;;1.63;;
25780;SDS011;13626;48.128;11.628;2022-10-16T03:52:19;2.10;;;1.42;;
25780;SDS011;13626;48.128;11.628;2022-10-16T03:54:46;3.58;;;1.23;;
25780;SDS011;13626;48.128;11.628;2022-10-16T03:57:13;3.97;;;1.58;;
25780;SDS011;13626;48.128;11.628;2022-10-16T03:59:40;6.63;;;2.05;;
25780;SDS011;13626;48.128;11.628;2022-10-16T04:02:07;2.38;;;1.33;;
25780;SDS011;13626;48.128;11.628;2022-10-16T04:04:34;1.83;;;1.40;;
25780;SDS011;13626;48.128;11.628;2022-10-16T04:07:01;3.13;;;1.73;;
25780;SDS011;13626;48.128;11.628;2022-10-16T04:09:28;1.88;;;1.17;;
25780;SDS011;13626;48.128;11.628;2022-10-16T04:11:55;1.58;;;1.40;;
25780;SDS011;13626;48.128;11.628;2022-10-16T04:14:23;2.13;;;1.42;;
25780;SDS011;13626;48.128;11.628;2022-10-16T04:16:50;1.35;;;1.23;;
25780;SDS011;13626;48.128;11.628;2022-10-16T04:19:17;2.10;;;1.60;;
25780;SDS011;13626;48.128;11.628;2022-10-16T04:21:44;3.55;;;1.20;;
25780;SDS011;13626;48.128;11.628;2022-10-16T04:24:11;1.83;;;1.27;;
25780;SDS011;13626;48.128;11.628;2022-10-16T04:26:38;2.03;;;1.45;;
25780;SDS011;13626;48.128;11.628;2022-10-16T04:29:05;1.40;;;1.20;;
25780;SDS011;13626;48.128;11.628;2022-10-16T04:31:33;2.85;;;1.40;;
25780;SDS011;13626;48.128;11.628;2022-10-16T04:34:00;1.50;;;1.40;;
25780;SDS011;13626;48.128;11.628;2022-10-16T04:36:27;1.77;;;1.40;;
25780;SDS011;13626;48.128;11.628;2022-10-16T04:38:54;2.55;;;1.40;;
25780;SDS011;13626;48.128;11.628;2022-10-16T04:41:21;2.50;;;1.35;;
25780;SDS011;13626;48.128;11.628;2022-10-16T04:43:49;2.65;;;1.40;;
25780;SDS011;13626;48.128;11.628;2022-10-16T04:46:16;1.40;;;1.30;;
25780;SDS011;13626;48.128;11.628;2022-10-16T04:48:43;1.85;;;1.23;;
25780;SDS011;13626;48.128;11.628;2022-10-16T04:51:10;1.55;;;1.30;;
25780;SDS011;13626;48.128;11.628;2022-10-16T04:53:37;1.95;;;1.20;;
25780;SDS011;13626;48.128;11.628;2022-10-16T04:56:04;1.58;;;1.33;;
25780;SDS011;13626;48.128;11.628;2022-10-16T04:58:32;2.50;;;1.50;;
25780;SDS011;13626;48.128;11.628;2022-10-16T05:00:59;1.60;;;1.40;;
25780;SDS011;13626;48.128;11.628;2022-10-16T05:03:26;6.30;;;1.50;;
25780;SDS011;13626;48.128;11.628;2022-10-16T05:05:53;2.88;;;1.45;;
25780;SDS011;13626;48.128;11.628;2022-10-16T05:08:20;3.25;;;1.30;;
25780;SDS011;13626;48.128;11.628;2022-10-16T05:10:48;2.90;;;1.48;;
25780;SDS011;13626;48.128;11.628;2022-10-16T05:13:15;2.70;;;1.27;;
25780;SDS011;13626;48.128;11.628;2022-10-16T05:15:42;1.50;;;1.27;;
25780;SDS011;13626;48.128;11.628;2022-10-16T05:18:13;1.52;;;1.30;;
25780;SDS011;13626;48.128;11.628;2022-10-16T05:20:40;2.83;;;1.30;;
25780;SDS011;13626;48.128;11.628;2022-10-16T05:23:07;1.50;;;1.40;;
25780;SDS011;13626;48.128;11.628;2022-10-16T05:25:36;1.45;;;1.35;;
25780;SDS011;13626;48.128;11.628;2022-10-16T05:28:03;2.22;;;1.65;;
25780;SDS011;13626;48.128;11.628;2022-10-16T05:30:30;1.50;;;1.40;;
25780;SDS011;13626;48.128;11.628;2022-10-16T05:32:58;1.30;;;1.13;;
25780;SDS011;13626;48.128;11.628;2022-10-16T05:35:25;1.17;;;1.08;;
25780;SDS011;13626;48.128;11.628;2022-10-16T05:37:52;1.58;;;1.27;;
25780;SDS011;13626;48.128;11.628;2022-10-16T05:40:19;2.10;;;1.40;;
25780;SDS011;13626;48.128;11.628;2022-10-16T05:42:46;1.40;;;1.27;;
25780;SDS011;13626;48.128;11.628;2022-10-16T05:45:13;2.00;;;1.27;;
25780;SDS011;13626;48.128;11.628;2022-10-16T05:47:40;1.83;;;1.50;;
25780;SDS011;13626;48.128;11.628;2022-10-16T05:50:08;1.50;;;1.35;;
25780;SDS011;13626;48.128;11.628;2022-10-16T05:52:36;4.70;;;1.40;;
25780;SDS011;13626;48.128;11.628;2022-10-16T05:55:03;1.52;;;1.42;;
25780;SDS011;13626;48.128;11.628;2022-10-16T05:57:30;1.70;;;1.38;;
25780;SDS011;13626;48.128;11.628;2022-10-16T05:59:57;2.08;;;1.40;;
25780;SDS011;13626;48.128;11.628;2022-10-16T06:02:24;1.58;;;1.48;;
25780;SDS011;13626;48.128;11.628;2022-10-16T06:04:52;3.25;;;1.42;;
25780;SDS011;13626;48.128;11.628;2022-10-16T06:07:22;3.95;;;1.67;;
25780;SDS011;13626;48.128;11.628;2022-10-16T06:09:50;2.90;;;1.58;;
25780;SDS011;13626;48.128;11.628;2022-10-16T06:12:18;2.15;;;1.55;;
25780;SDS011;13626;48.128;11.628;2022-10-16T06:14:45;2.67;;;1.75;;
25780;SDS011;13626;48.128;11.628;2022-10-16T06:17:13;1.63;;;1.52;;
25780;SDS011;13626;48.128;11.628;2022-10-16T06:19:41;1.83;;;1.38;;
25780;SDS011;13626;48.128;11.628;2022-10-16T06:22:08;1.50;;;1.40;;
25780;SDS011;13626;48.128;11.628;2022-10-16T06:24:35;1.65;;;1.52;;
25780;SDS011;13626;48.128;11.628;2022-10-16T06:27:03;2.08;;;1.60;;
25780;SDS011;13626;48.128;11.628;2022-10-16T06:29:30;2.80;;;1.88;;
25780;SDS011;13626;48.128;11.628;2022-10-16T06:31:57;2.05;;;1.65;;
25780;SDS011;13626;48.128;11.628;2022-10-16T06:34:24;3.10;;;1.60;;
25780;SDS011;13626;48.128;11.628;2022-10-16T06:36:51;1.52;;;1.38;;
25780;SDS011;13626;48.128;11.628;2022-10-16T06:39:19;2.63;;;1.48;;
25780;SDS011;13626;48.128;11.628;2022-10-16T06:41:46;2.97;;;1.30;;
25780;SDS011;13626;48.128;11.628;2022-10-16T06:44:13;1.98;;;1.60;;
25780;SDS011;13626;48.128;11.628;2022-10-16T06:46:40;3.40;;;2.25;;
25780;SDS011;13626;48.128;11.628;2022-10-16T06:49:07;3.25;;;1.65;;
25780;SDS011;13626;48.128;11.628;2022-10-16T06:51:34;2.67;;;1.73;;
25780;SDS011;13626;48.128;11.628;2022-10-16T06:54:08;2.35;;;1.80;;
25780;SDS011;13626;48.128;11.628;2022-10-16T06:56:35;3.45;;;1.67;;
25780;SDS011;13626;48.128;11.628;2022-10-16T06:59:03;2.50;;;1.95;;
25780;SDS011;13626;48.128;11.628;2022-10-16T07:01:31;1.70;;;1.60;;
25780;SDS011;13626;48.128;11.628;2022-10-16T07:03:59;5.05;;;1.60;;
25780;SDS011;13626;48.128;11.628;2022-10-16T07:06:27;3.55;;;1.77;;
25780;SDS011;13626;48.128;11.628;2022-10-16T07:08:57;2.53;;;1.60;;
25780;SDS011;13626;48.128;11.628;2022-10-16T07:11:24;3.45;;;1.50;;
25780;SDS011;13626;48.128;11.628;2022-10-16T07:13:51;3.20;;;1.40;;
25780;SDS011;13626;48.128;11.628;2022-10-16T07:16:22;2.70;;;1.80;;
25780;SDS011;13626;48.128;11.628;2022-10-16T07:18:50;6.93;;;2.25;;
25780;SDS011;13626;48.128;11.628;2022-10-16T07:21:21;3.08;;;1.65;;
25780;SDS011;13626;48.128;11.628;2022-10-16T07:23:52;1.58;;;1.45;;
25780;SDS011;13626;48.128;11.628;2022-10-16T07:26:20;2.38;;;1.50;;
25780;SDS011;13626;48.128;11.628;2022-10-16T07:28:47;2.28;;;1.42;;
25780;SDS011;13626;48.128;11.628;2022-10-16T07:31:15;2.20;;;1.60;;
25780;SDS011;13626;48.128;11.628;2022-10-16T07:33:43;1.70;;;1.55;;
25780;SDS011;13626;48.128;11.628;2022-10-16T07:36:11;2.20;;;2.00;;
25780;SDS011;13626;48.128;11.628;2022-10-16T07:38:42;4.43;;;1.73;;
25780;SDS011;13626;48.128;11.628;2022-10-16T07:41:13;1.70;;;1.60;;
25780;SDS011;13626;48.128;11.628;2022-10-16T07:43:48;2.05;;;1.77;;
25780;SDS011;13626;48.128;11.628;2022-10-16T07:46:16;2.70;;;1.87;;
25780;SDS011;13626;48.128;11.628;2022-10-16T07:48:43;2.70;;;2.15;;
25780;SDS011;13626;48.128;11.628;2022-10-16T07:51:14;2.03;;;1.90;;
25780;SDS011;13626;48.128;11.628;2022-10-16T07:53:41;4.22;;;1.63;;
25780;SDS011;13626;48.128;11.628;2022-10-16T07:56:09;2.78;;;1.65;;
25780;SDS011;13626;48.128;11.628;2022-10-16T07:58:38;5.72;;;1.90;;
25780;SDS011;13626;48.128;11.628;2022-10-16T08:01:06;1.90;;;1.75;;
25780;SDS011;13626;48.128;11.628;2022-10-16T08:03:34;4.65;;;2.17;;
25780;SDS011;13626;48.128;11.628;2022-10-16T08:06:02;2.22;;;1.95;;
25780;SDS011;13626;48.128;11.628;2022-10-16T08:08:32;3.15;;;1.92;;
25780;SDS011;13626;48.128;11.628;2022-10-16T08:10:59;4.70;;;2.25;;
25780;SDS011;13626;48.128;11.628;2022-10-16T08:13:26;4.38;;;2.03;;
25780;SDS011;13626;48.128;11.628;2022-10-16T08:15:53;4.07;;;2.30;;
25780;SDS011;13626;48.128;11.628;2022-10-16T08:18:21;2.55;;;2.08;;
25780;SDS011;13626;48.128;11.628;2022-10-16T08:20:54;2.42;;;2.10;;
25780;SDS011;13626;48.128;11.628;2022-10-16T08:23:22;2.00;;;1.80;;
25780;SDS011;13626;48.128;11.628;2022-10-16T08:25:49;3.55;;;2.10;;
25780;SDS011;13626;48.128;11.628;2022-10-16T08:28:16;2.15;;;1.77;;
25780;SDS011;13626;48.128;11.628;2022-10-16T08:30:47;2.58;;;1.88;;
25780;SDS011;13626;48.128;11.628;2022-10-16T08:33:14;2.15;;;1.80;;
25780;SDS011;13626;48.128;11.628;2022-10-16T08:35:41;2.40;;;1.80;;
25780;SDS011;13626;48.128;11.628;2022-10-16T08:38:08;2.28;;;1.95;;
25780;SDS011;13626;48.128;11.628;2022-10-16T08:40:36;2.33;;;1.85;;
25780;SDS011;13626;48.128;11.628;2022-10-16T08:48:27;2.08;;;1.50;;
25780;SDS011;13626;48.128;11.628;2022-10-16T08:50:57;1.90;;;1.60;;
25780;SDS011;13626;48.128;11.628;2022-10-16T08:53:26;3.28;;;1.63;;
25780;SDS011;13626;48.128;11.628;2022-10-16T08:55:54;2.22;;;1.45;;
25780;SDS011;13626;48.128;11.628;2022-10-16T08:58:22;1.60;;;1.50;;
25780;SDS011;13626;48.128;11.628;2022-10-16T09:00:51;1.52;;;1.42;;
25780;SDS011;13626;48.128;11.628;2022-10-16T09:08:40;1.63;;;1.52;;
25780;SDS011;13626;48.128;11.628;2022-10-16T09:13:43;2.08;;;1.58;;
25780;SDS011;13626;48.128;11.628;2022-10-16T09:16:18;1.42;;;1.33;;
25780;SDS011;13626;48.128;11.628;2022-10-16T09:18:51;1.50;;;1.40;;
25780;SDS011;13626;48.128;11.628;2022-10-16T09:21:23;2.88;;;1.52;;
25780;SDS011;13626;48.128;11.628;2022-10-16T09:23:51;5.38;;;1.85;;
25780;SDS011;13626;48.128;11.628;2022-10-16T09:26:18;1.52;;;1.42;;
25780;SDS011;13626;48.128;11.628;2022-10-16T09:28:48;1.63;;;1.35;;
25780;SDS011;13626;48.128;11.628;2022-10-16T09:31:19;1.50;;;1.40;;
25780;SDS011;13626;48.128;11.628;2022-10-16T09:33:51;1.50;;;1.40;;
25780;SDS011;13626;48.128;11.628;2022-10-16T09:36:19;3.15;;;1.52;;
25780;SDS011;13626;48.128;11.628;2022-10-16T09:38:47;1.63;;;1.40;;
25780;SDS011;13626;48.128;11.628;2022-10-16T09:41:19;1.60;;;1.50;;
25780;SDS011;13626;48.128;11.628;2022-10-16T09:46:27;3.15;;;1.40;;
25780;SDS011;13626;48.128;11.628;2022-10-16T09:49:00;2.78;;;2.25;;
25780;SDS011;13626;48.128;11.628;2022-10-16T09:51:32;1.98;;;1.70;;
25780;SDS011;13626;48.128;11.628;2022-10-16T09:54:21;1.50;;;1.17;;
25780;SDS011;13626;48.128;11.628;2022-10-16T09:56:48;1.80;;;1.30;;
25780;SDS011;13626;48.128;11.628;2022-10-16T09:59:19;1.85;;;1.40;;
25780;SDS011;13626;48.128;11.628;2022-10-16T10:01:49;2.17;;;1.30;;
25780;SDS011;13626;48.128;11.628;2022-10-16T10:04:17;1.20;;;1.20;;
25780;SDS011;13626;48.128;11.628;2022-10-16T10:06:46;2.35;;;1.25;;
25780;SDS011;13626;48.128;11.628;2022-10-16T10:11:42;4.13;;;1.77;;
25780;SDS011;13626;48.128;11.628;2022-10-16T10:14:20;1.85;;;1.30;;
25780;SDS011;13626;48.128;11.628;2022-10-16T10:16:48;2.33;;;1.50;;
25780;SDS011;13626;48.128;11.628;2022-10-16T10:19:20;2.97;;;1.88;;
25780;SDS011;13626;48.128;11.628;2022-10-16T10:21:47;2.17;;;1.83;;
25780;SDS011;13626;48.128;11.628;2022-10-16T10:24:15;1.60;;;1.50;;
25780;SDS011;13626;48.128;11.628;2022-10-16T10:27:06;3.33;;;1.42;;
25780;SDS011;13626;48.128;11.628;2022-10-16T10:29:36;1.75;;;1.65;;
25780;SDS011;13626;48.128;11.628;2022-10-16T10:32:11;1.45;;;1.35;;
25780;SDS011;13626;48.128;11.628;2022-10-16T10:35:03;1.60;;;1.50;;
25780;SDS011;13626;48.128;11.628;2022-10-16T10:37:44;1.95;;;1.60;;
25780;SDS011;13626;48.128;11.628;2022-10-16T10:43:04;4.03;;;1.40;;
25780;SDS011;13626;48.128;11.628;2022-10-16T10:45:55;2.78;;;1.60;;
25780;SDS011;13626;48.128;11.628;2022-10-16T10:48:24;1.60;;;1.50;;
25780;SDS011;13626;48.128;11.628;2022-10-16T10:50:56;2.15;;;1.60;;
25780;SDS011;13626;48.128;11.628;2022-10-16T10:53:28;1.77;;;1.55;;
25780;SDS011;13626;48.128;11.628;2022-10-16T11:06:31;2.22;;;1.15;;
25780;SDS011;13626;48.128;11.628;2022-10-16T11:09:44;2.50;;;1.90;;
25780;SDS011;13626;48.128;11.628;2022-10-16T11:11:52;2.83;;;1.33;;
25780;SDS011;13626;48.128;11.628;2022-10-16T11:14:28;1.27;;;1.17;;
25780;SDS011;13626;48.128;11.628;2022-10-16T11:16:59;1.50;;;1.40;;
25780;SDS011;13626;48.128;11.628;2022-10-16T11:19:37;3.70;;;1.10;;
25780;SDS011;13626;48.128;11.628;2022-10-16T11:22:12;1.63;;;1.08;;
25780;SDS011;13626;48.128;11.628;2022-10-16T11:24:53;2.00;;;0.75;;
25780;SDS011;13626;48.128;11.628;2022-10-16T11:30:29;0.68;;;0.68;;
25780;SDS011;13626;48.128;11.628;2022-10-16T11:35:39;1.27;;;0.90;;
25780;SDS011;13626;48.128;11.628;2022-10-16T11:38:11;1.52;;;0.90;;
25780;SDS011;13626;48.128;11.628;2022-10-16T11:40:39;1.38;;;1.27;;
25780;SDS011;13626;48.128;11.628;2022-10-16T11:43:13;1.48;;;1.38;;
25780;SDS011;13626;48.128;11.628;2022-10-16T11:51:07;1.30;;;1.20;;
25780;SDS011;13626;48.128;11.628;2022-10-16T11:56:06;2.28;;;1.05;;
25780;SDS011;13626;48.128;11.628;2022-10-16T11:58:35;1.20;;;1.00;;
25780;SDS011;13626;48.128;11.628;2022-10-16T12:08:33;1.05;;;0.90;;
25780;SDS011;13626;48.128;11.628;2022-10-16T12:11:08;0.70;;;0.70;;
25780;SDS011;13626;48.128;11.628;2022-10-16T12:13:37;1.35;;;1.02;;
25780;SDS011;13626;48.128;11.628;2022-10-16T12:18:38;0.88;;;0.88;;
25780;SDS011;13626;48.128;11.628;2022-10-16T12:21:06;2.45;;;0.88;;
25780;SDS011;13626;48.128;11.628;2022-10-16T12:23:37;1.13;;;0.70;;
25780;SDS011;13626;48.128;11.628;2022-10-16T12:26:05;1.02;;;0.93;;
25780;SDS011;13626;48.128;11.628;2022-10-16T12:28:32;1.95;;;1.10;;
25780;SDS011;13626;48.128;11.628;2022-10-16T12:31:01;1.73;;;0.80;;
25780;SDS011;13626;48.128;11.628;2022-10-16T12:33:30;0.95;;;0.85;;
25780;SDS011;13626;48.128;11.628;2022-10-16T12:35:58;1.40;;;0.80;;
25780;SDS011;13626;48.128;11.628;2022-10-16T12:40:58;1.13;;;0.90;;
25780;SDS011;13626;48.128;11.628;2022-10-16T12:45:59;1.00;;;0.88;;
25780;SDS011;13626;48.128;11.628;2022-10-16T12:48:26;1.38;;;1.02;;
25780;SDS011;13626;48.128;11.628;2022-10-16T12:53:57;0.70;;;0.70;;
25780;SDS011;13626;48.128;11.628;2022-10-16T12:56:27;0.88;;;0.85;;
25780;SDS011;13626;48.128;11.628;2022-10-16T12:59:10;1.10;;;1.00;;
25780;SDS011;13626;48.128;11.628;2022-10-16T13:01:41;2.08;;;1.20;;
25780;SDS011;13626;48.128;11.628;2022-10-16T13:06:39;2.08;;;0.90;;
25780;SDS011;13626;48.128;11.628;2022-10-16T13:11:43;1.67;;;0.90;;
25780;SDS011;13626;48.128;11.628;2022-10-16T13:19:57;1.63;;;0.90;;
25780;SDS011;13626;48.128;11.628;2022-10-16T13:22:31;1.67;;;1.00;;
25780;SDS011;13626;48.128;11.628;2022-10-16T13:30:02;0.93;;;0.90;;
25780;SDS011;13626;48.128;11.628;2022-10-16T13:32:35;3.10;;;0.93;;
25780;SDS011;13626;48.128;11.628;2022-10-16T13:35:03;0.93;;;0.90;;
25780;SDS011;13626;48.128;11.628;2022-10-16T13:37:30;1.20;;;1.10;;
25780;SDS011;13626;48.128;11.628;2022-10-16T13:42:54;2.00;;;1.10;;
25780;SDS011;13626;48.128;11.628;2022-10-16T13:45:25;1.85;;;1.00;;
25780;SDS011;13626;48.128;11.628;2022-10-16T13:48:02;6.32;;;1.30;;
25780;SDS011;13626;48.128;11.628;2022-10-16T13:50:29;1.83;;;1.42;;
25780;SDS011;13626;48.128;11.628;2022-10-16T13:53:04;1.02;;;1.02;;
25780;SDS011;13626;48.128;11.628;2022-10-16T13:55:31;2.28;;;1.25;;
25780;SDS011;13626;48.128;11.628;2022-10-16T13:58:06;1.02;;;1.00;;
25780;SDS011;13626;48.128;11.628;2022-10-16T14:00:34;2.85;;;1.27;;
25780;SDS011;13626;48.128;11.628;2022-10-16T14:03:10;0.90;;;0.90;;
25780;SDS011;13626;48.128;11.628;2022-10-16T14:05:45;1.20;;;0.88;;
25780;SDS011;13626;48.128;11.628;2022-10-16T14:08:14;1.17;;;1.08;;
25780;SDS011;13626;48.128;11.628;2022-10-16T14:10:41;2.88;;;1.20;;
25780;SDS011;13626;48.128;11.628;2022-10-16T14:13:12;1.42;;;1.23;;
25780;SDS011;13626;48.128;11.628;2022-10-16T14:15:45;1.10;;;0.90;;
25780;SDS011;13626;48.128;11.628;2022-10-16T14:18:15;1.00;;;1.00;;
25780;SDS011;13626;48.128;11.628;2022-10-16T14:20:45;1.38;;;1.20;;
25780;SDS011;13626;48.128;11.628;2022-10-16T14:23:32;1.42;;;1.20;;
25780;SDS011;13626;48.128;11.628;2022-10-16T14:28:40;0.90;;;0.90;;
25780;SDS011;13626;48.128;11.628;2022-10-16T14:31:23;1.33;;;1.15;;
25780;SDS011;13626;48.128;11.628;2022-10-16T14:33:50;1.20;;;1.10;;
25780;SDS011;13626;48.128;11.628;2022-10-16T14:36:18;1.42;;;1.20;;
25780;SDS011;13626;48.128;11.628;2022-10-16T14:39:03;1.23;;;1.02;;
25780;SDS011;13626;48.128;11.628;2022-10-16T14:41:32;1.17;;;1.08;;
25780;SDS011;13626;48.128;11.628;2022-10-16T14:44:03;1.23;;;1.13;;
25780;SDS011;13626;48.128;11.628;2022-10-16T14:46:32;1.30;;;1.13;;
25780;SDS011;13626;48.128;11.628;2022-10-16T14:49:02;1.50;;;1.10;;
25780;SDS011;13626;48.128;11.628;2022-10-16T14:51:29;0.82;;;0.82;;
25780;SDS011;13626;48.128;11.628;2022-10-16T14:53:57;1.33;;;1.20;;
25780;SDS011;13626;48.128;11.628;2022-10-16T14:56:27;1.88;;;1.10;;
25780;SDS011;13626;48.128;11.628;2022-10-16T14:58:58;1.02;;;0.90;;
25780;SDS011;13626;48.128;11.628;2022-10-16T15:01:25;1.33;;;1.23;;
25780;SDS011;13626;48.128;11.628;2022-10-16T15:03:52;1.27;;;1.10;;
25780;SDS011;13626;48.128;11.628;2022-10-16T15:06:21;4.70;;;1.23;;
25780;SDS011;13626;48.128;11.628;2022-10-16T15:08:48;1.50;;;1.40;;
25780;SDS011;13626;48.128;11.628;2022-10-16T15:11:16;2.20;;;1.15;;
25780;SDS011;13626;48.128;11.628;2022-10-16T15:13:44;3.30;;;1.40;;
25780;SDS011;13626;48.128;11.628;2022-10-16T15:16:13;1.70;;;1.38;;
25780;SDS011;13626;48.128;11.628;2022-10-16T15:18:40;2.50;;;2.08;;
25780;SDS011;13626;48.128;11.628;2022-10-16T15:21:07;1.85;;;1.67;;
25780;SDS011;13626;48.128;11.628;2022-10-16T15:23:35;2.58;;;1.60;;
25780;SDS011;13626;48.128;11.628;2022-10-16T15:26:02;2.80;;;1.58;;
25780;SDS011;13626;48.128;11.628;2022-10-16T15:28:29;1.98;;;1.30;;
25780;SDS011;13626;48.128;11.628;2022-10-16T15:30:56;2.15;;;1.40;;
25780;SDS011;13626;48.128;11.628;2022-10-16T15:33:25;2.92;;;1.48;;
25780;SDS011;13626;48.128;11.628;2022-10-16T15:36:04;3.92;;;1.38;;
25780;SDS011;13626;48.128;11.628;2022-10-16T15:38:32;2.63;;;1.40;;
25780;SDS011;13626;48.128;11.628;2022-10-16T15:40:59;1.30;;;1.20;;
25780;SDS011;13626;48.128;11.628;2022-10-16T15:43:26;1.85;;;1.30;;
25780;SDS011;13626;48.128;11.628;2022-10-16T15:46:02;1.55;;;1.20;;
25780;SDS011;13626;48.128;11.628;2022-10-16T15:48:29;1.92;;;1.23;;
25780;SDS011;13626;48.128;11.628;2022-10-16T15:50:57;1.95;;;1.48;;
25780;SDS011;13626;48.128;11.628;2022-10-16T15:53:24;3.65;;;1.48;;
25780;SDS011;13626;48.128;11.628;2022-10-16T15:55:51;1.73;;;1.50;;
25780;SDS011;13626;48.128;11.628;2022-10-16T15:58:18;3.20;;;1.40;;
25780;SDS011;13626;48.128;11.628;2022-10-16T16:00:53;2.88;;;1.27;;
25780;SDS011;13626;48.128;11.628;2022-10-16T16:05:47;4.93;;;1.50;;
25780;SDS011;13626;48.128;11.628;2022-10-16T16:08:14;2.47;;;1.77;;
25780;SDS011;13626;48.128;11.628;2022-10-16T16:10:42;2.10;;;1.45;;
25780;SDS011;13626;48.128;11.628;2022-10-16T16:13:10;2.67;;;1.40;;
25780;SDS011;13626;48.128;11.628;2022-10-16T16:15:40;1.67;;;1.35;;
25780;SDS011;13626;48.128;11.628;2022-10-16T16:18:07;1.75;;;1.30;;